createdAt,value
2022-11-05T00:00:50.405Z,7.18
2022-11-05T00:03:37.082Z,4.55
2022-11-05T00:06:22.976Z,10.88
2022-11-05T00:09:09.036Z,6.18
2022-11-05T00:11:55.635Z,8.68
2022-11-05T00:14:42.304Z,4.68
2022-11-05T00:17:09.845Z,4.32
2022-11-05T00:19:37.373Z,5.47
2022-11-05T00:22:23.367Z,5.18
2022-11-05T00:25:09.295Z,6.43
2022-11-05T00:27:36.863Z,6.70
2022-11-05T00:30:09.904Z,5.30
2022-11-05T00:32:37.990Z,5.13
2022-11-05T00:35:07.038Z,5.03
2022-11-05T00:37:34.904Z,4.65
2022-11-05T00:40:03.118Z,8.20
2022-11-05T00:42:50.129Z,4.60
2022-11-05T00:45:17.692Z,4.97
2022-11-05T00:48:04.173Z,5.72
2022-11-05T00:50:32.354Z,6.00
2022-11-05T00:55:38.414Z,3.45
2022-11-05T00:58:21.773Z,2.75
2022-11-05T01:00:52.617Z,7.72
2022-11-05T01:03:23.157Z,6.95
2022-11-05T01:05:54.798Z,7.20
2022-11-05T01:08:25.694Z,11.98
2022-11-05T01:10:56.960Z,8.50
2022-11-05T01:13:28.316Z,7.93
2022-11-05T01:15:57.592Z,10.50
2022-11-05T01:18:25.719Z,8.90
2022-11-05T01:23:22.255Z,7.90
2022-11-05T01:25:50.639Z,6.38
2022-11-05T01:28:18.750Z,7.65
2022-11-05T01:33:15.672Z,8.00
2022-11-05T01:35:43.898Z,4.93
2022-11-05T01:38:11.550Z,6.68
2022-11-05T01:40:43.259Z,12.45
2022-11-05T01:43:17.629Z,10.07
2022-11-05T01:45:49.651Z,8.82
2022-11-05T01:48:28.671Z,7.60
2022-11-05T01:51:01.733Z,6.10
2022-11-05T01:53:36.351Z,7.53
2022-11-05T01:56:25.089Z,5.97
2022-11-05T01:59:13.700Z,5.00
2022-11-05T02:01:41.751Z,10.40
2022-11-05T02:04:14.506Z,11.55
2022-11-05T02:06:46.211Z,9.93
2022-11-05T02:09:22.418Z,12.65
2022-11-05T02:11:51.399Z,10.88
2022-11-05T02:14:20.377Z,11.68
2022-11-05T02:17:15.428Z,11.40
2022-11-05T02:20:33.619Z,10.63
2022-11-05T02:23:35.071Z,8.93
2022-11-05T02:26:03.019Z,13.95
2022-11-05T02:28:58.326Z,13.23
2022-11-05T02:31:56.734Z,12.63
2022-11-05T02:35:09.764Z,8.70
2022-11-05T02:37:55.238Z,10.98
2022-11-05T02:40:36.118Z,10.52
2022-11-05T02:43:04.011Z,12.48
2022-11-05T02:45:37.482Z,8.88
2022-11-05T02:48:17.186Z,11.73
2022-11-05T02:51:38.833Z,8.38
2022-11-05T02:54:06.980Z,7.57
2022-11-05T02:56:38.945Z,7.78
2022-11-05T02:59:06.903Z,5.80
2022-11-05T03:01:37.033Z,10.57
2022-11-05T03:04:09.541Z,10.55
2022-11-05T03:07:00.267Z,10.13
2022-11-05T03:10:08.962Z,8.43
2022-11-05T03:12:50.880Z,6.97
2022-11-05T03:15:49.389Z,11.00
2022-11-05T03:18:32.904Z,10.45
2022-11-05T03:21:24.324Z,10.82
2022-11-05T03:24:03.430Z,9.65
2022-11-05T03:26:38.841Z,9.73
2022-11-05T03:29:11.481Z,8.05
2022-11-05T03:31:41.601Z,10.77
2022-11-05T03:34:12.763Z,9.07
2022-11-05T03:36:48.752Z,7.90
2022-11-05T03:39:19.426Z,10.90
2022-11-05T03:41:51.951Z,7.72
2022-11-05T03:44:26.555Z,7.03
2022-11-05T03:46:58.811Z,6.55
2022-11-05T03:49:32.002Z,8.13
2022-11-05T03:52:17.967Z,5.90
2022-11-05T03:54:46.608Z,11.10
2022-11-05T03:57:25.623Z,23.35
2022-11-05T03:59:53.189Z,15.98
2022-11-05T04:02:24.258Z,8.25
2022-11-05T04:04:53.119Z,6.25
2022-11-05T04:07:39.114Z,8.73
2022-11-05T04:10:25.144Z,5.78
2022-11-05T04:13:11.522Z,7.43
2022-11-05T04:15:58.224Z,5.50
2022-11-05T04:18:26.055Z,7.63
2022-11-05T04:21:12.024Z,8.85
2022-11-05T04:23:58.448Z,6.43
2022-11-05T04:26:26.164Z,9.43
2022-11-05T04:29:12.519Z,6.68
2022-11-05T04:31:40.085Z,8.40
2022-11-05T04:34:07.634Z,8.50
2022-11-05T04:36:35.810Z,10.85
2022-11-05T04:39:03.253Z,6.55
2022-11-05T04:41:31.162Z,8.43
2022-11-05T04:43:58.807Z,6.18
2022-11-05T04:46:26.471Z,5.25
2022-11-05T04:48:53.980Z,8.35
2022-11-05T04:51:21.543Z,4.63
2022-11-05T04:53:49.003Z,5.25
2022-11-05T04:56:21.965Z,7.70
2022-11-05T04:58:50.142Z,11.13
2022-11-05T05:01:20.472Z,7.55
2022-11-05T05:03:49.219Z,7.22
2022-11-05T05:06:17.328Z,6.90
2022-11-05T05:11:16.320Z,8.15
2022-11-05T05:13:43.893Z,7.20
2022-11-05T05:16:29.558Z,7.47
2022-11-05T05:18:57.199Z,8.00
2022-11-05T05:21:39.731Z,10.00
2022-11-05T05:24:08.807Z,5.15
2022-11-05T05:26:42.204Z,9.48
2022-11-05T05:29:10.886Z,6.55
2022-11-05T05:31:38.830Z,8.40
2022-11-05T05:34:07.829Z,9.77
2022-11-05T05:36:35.349Z,10.70
2022-11-05T05:39:06.465Z,11.85
2022-11-05T05:41:34.280Z,8.60
2022-11-05T05:44:02.224Z,15.23
2022-11-05T05:46:29.656Z,12.38
2022-11-05T05:48:57.734Z,10.70
2022-11-05T05:51:25.421Z,12.05
2022-11-05T05:53:54.706Z,8.55
2022-11-05T05:56:22.211Z,8.60
2022-11-05T05:58:50.115Z,10.00
2022-11-05T06:01:19.716Z,8.50
2022-11-05T06:03:49.262Z,8.45
2022-11-05T06:06:21.277Z,8.30
2022-11-05T06:08:49.240Z,8.32
2022-11-05T06:11:16.821Z,6.50
2022-11-05T06:13:44.485Z,8.48
2022-11-05T06:16:12.325Z,8.00
2022-11-05T06:18:39.948Z,14.63
2022-11-05T06:21:10.673Z,10.38
2022-11-05T06:23:40.158Z,12.20
2022-11-05T06:26:13.671Z,11.48
2022-11-05T06:28:42.169Z,6.93
2022-11-05T06:31:14.094Z,14.07
2022-11-05T06:33:41.999Z,15.48
2022-11-05T06:36:14.587Z,11.82
2022-11-05T06:38:42.243Z,13.10
2022-11-05T06:41:10.670Z,13.57
2022-11-05T06:43:39.063Z,9.02
2022-11-05T06:46:06.872Z,11.38
2022-11-05T06:48:34.622Z,16.10
2022-11-05T06:51:03.049Z,13.05
2022-11-05T06:53:30.854Z,12.27
2022-11-05T06:56:01.513Z,12.38
2022-11-05T06:58:29.584Z,15.90
2022-11-05T07:01:01.536Z,11.60
2022-11-05T07:03:29.939Z,10.25
2022-11-05T07:06:00.260Z,11.23
2022-11-05T07:08:32.472Z,12.27
2022-11-05T07:11:00.897Z,10.98
2022-11-05T07:13:28.523Z,10.30
2022-11-05T07:15:56.663Z,14.13
2022-11-05T07:18:24.411Z,16.10
2022-11-05T07:20:52.325Z,14.35
2022-11-05T07:23:20.128Z,14.98
2022-11-05T07:25:47.771Z,13.38
2022-11-05T07:28:15.683Z,14.70
2022-11-05T07:30:43.248Z,17.00
2022-11-05T07:33:11.630Z,15.15
2022-11-05T07:35:39.852Z,13.88
2022-11-05T07:38:11.157Z,17.83
2022-11-05T07:40:39.401Z,15.65
2022-11-05T07:43:07.342Z,15.23
2022-11-05T07:45:34.789Z,13.68
2022-11-05T07:48:04.046Z,16.40
2022-11-05T07:50:34.629Z,19.35
2022-11-05T07:53:14.766Z,20.10
2022-11-05T07:55:43.936Z,19.20
2022-11-05T07:58:12.089Z,20.20
2022-11-05T08:00:40.076Z,17.25
2022-11-05T08:05:39.530Z,15.15
2022-11-05T08:08:08.830Z,19.73
2022-11-05T08:10:37.688Z,19.10
2022-11-05T08:13:06.337Z,16.55
2022-11-05T08:15:35.330Z,19.48
2022-11-05T08:18:05.241Z,19.67
2022-11-05T08:20:33.850Z,22.95
2022-11-05T08:23:01.780Z,25.40
2022-11-05T08:25:29.734Z,24.60
2022-11-05T08:28:01.938Z,23.02
2022-11-05T08:30:30.321Z,27.05
2022-11-05T08:33:00.243Z,26.23
2022-11-05T08:35:28.459Z,22.35
2022-11-05T08:40:28.696Z,20.05
2022-11-05T08:45:27.614Z,20.73
2022-11-05T08:50:30.006Z,24.40
2022-11-05T08:52:57.933Z,24.05
2022-11-05T08:55:26.469Z,20.40
2022-11-05T08:57:58.853Z,24.90
2022-11-05T09:00:28.741Z,26.00
2022-11-05T09:03:02.749Z,24.48
2022-11-05T09:05:31.301Z,23.33
2022-11-05T09:08:01.431Z,21.05
2022-11-05T09:10:29.277Z,24.08
2022-11-05T09:12:56.773Z,25.05
2022-11-05T09:15:24.853Z,20.88
2022-11-05T09:17:52.411Z,18.50
2022-11-05T09:20:20.550Z,18.58
2022-11-05T09:22:47.993Z,20.95
2022-11-05T09:25:16.041Z,19.20
2022-11-05T09:27:44.282Z,22.95
2022-11-05T09:30:13.495Z,18.08
2022-11-05T09:32:41.425Z,21.23
2022-11-05T09:35:09.968Z,17.30
2022-11-05T09:37:38.102Z,17.95
2022-11-05T09:40:06.708Z,16.80
2022-11-05T09:42:41.702Z,17.85
2022-11-05T09:45:16.735Z,14.77
2022-11-05T09:47:58.791Z,14.75
2022-11-05T09:50:33.740Z,14.63
2022-11-05T09:53:02.161Z,13.48
2022-11-05T09:55:35.626Z,13.63
2022-11-05T09:58:12.956Z,13.70
2022-11-05T10:00:41.846Z,13.88
2022-11-05T10:03:17.756Z,17.52
2022-11-05T10:05:46.843Z,15.43
2022-11-05T10:08:23.431Z,13.40
2022-11-05T10:10:56.499Z,12.00
2022-11-05T10:13:36.544Z,11.98
2022-11-05T10:16:28.583Z,12.70
2022-11-05T10:19:17.111Z,13.32
2022-11-05T10:22:05.472Z,12.05
2022-11-05T10:24:32.438Z,11.88
2022-11-05T10:27:00.141Z,11.48
2022-11-05T10:29:30.730Z,14.07
2022-11-05T10:32:00.577Z,17.08
2022-11-05T10:34:32.293Z,13.07
2022-11-05T10:37:00.292Z,10.10
2022-11-05T10:42:24.301Z,22.58
2022-11-05T10:45:06.995Z,9.07
2022-11-05T10:48:13.453Z,9.00
2022-11-05T10:50:41.445Z,9.15
2022-11-05T10:53:16.102Z,10.77
2022-11-05T10:55:50.121Z,10.65
2022-11-05T10:58:17.657Z,10.77
2022-11-05T11:00:50.007Z,11.35
2022-11-05T11:03:46.138Z,5.97
2022-11-05T11:06:30.813Z,11.25
2022-11-05T11:09:02.243Z,9.77
2022-11-05T11:11:37.727Z,16.13
2022-11-05T11:14:27.304Z,10.20
2022-11-05T11:16:57.392Z,14.55
2022-11-05T11:19:29.785Z,10.57
2022-11-05T11:22:13.716Z,62.88
2022-11-05T11:24:44.069Z,242.25
2022-11-05T11:27:22.810Z,12.95
2022-11-05T11:29:57.828Z,11.20
2022-11-05T11:32:31.799Z,10.25
2022-11-05T11:35:01.130Z,12.40
2022-11-05T11:37:35.049Z,10.35
2022-11-05T11:40:11.371Z,17.75
2022-11-05T11:42:41.503Z,9.70
2022-11-05T11:45:33.980Z,12.98
2022-11-05T11:48:05.340Z,14.15
2022-11-05T11:50:34.616Z,16.02
2022-11-05T11:53:36.974Z,10.10
2022-11-05T11:56:19.516Z,9.68
2022-11-05T11:58:54.583Z,10.77
2022-11-05T12:01:40.959Z,13.00
2022-11-05T12:04:34.485Z,11.38
2022-11-05T12:07:07.900Z,9.27
2022-11-05T12:10:04.431Z,7.95
2022-11-05T12:12:40.911Z,11.47
2022-11-05T12:15:11.528Z,13.57
2022-11-05T12:17:42.261Z,15.02
2022-11-05T12:20:32.625Z,9.48
2022-11-05T12:23:42.164Z,8.20
2022-11-05T12:26:23.990Z,7.13
2022-11-05T12:29:18.892Z,8.57
2022-11-05T12:31:55.785Z,16.55
2022-11-05T12:34:56.993Z,10.43
2022-11-05T12:37:52.775Z,10.27
2022-11-05T12:40:23.414Z,10.68
2022-11-05T12:42:51.456Z,12.35
2022-11-05T12:45:43.171Z,9.05
2022-11-05T12:48:34.186Z,10.45
2022-11-05T12:51:10.568Z,9.57
2022-11-05T12:54:01.041Z,11.27
2022-11-05T12:56:59.247Z,8.45
2022-11-05T12:59:37.455Z,13.35
2022-11-05T13:02:22.504Z,9.25
2022-11-05T13:05:01.848Z,12.73
2022-11-05T13:07:37.931Z,8.40
2022-11-05T13:10:19.159Z,5.78
2022-11-05T13:12:53.431Z,8.02
2022-11-05T13:15:32.609Z,7.13
2022-11-05T13:18:05.793Z,8.25
2022-11-05T13:20:38.805Z,11.43
2022-11-05T13:23:24.328Z,7.63
2022-11-05T13:26:09.600Z,9.32
2022-11-05T13:28:57.441Z,8.30
2022-11-05T13:34:04.866Z,6.30
2022-11-05T13:37:13.225Z,8.55
2022-11-05T13:39:52.946Z,9.00
2022-11-05T13:42:20.568Z,5.88
2022-11-05T13:44:50.943Z,8.38
2022-11-05T13:47:31.457Z,8.20
2022-11-05T13:50:17.955Z,7.50
2022-11-05T13:53:04.473Z,8.18
2022-11-05T13:56:01.488Z,4.60
2022-11-05T13:58:52.835Z,8.05
2022-11-05T14:01:35.659Z,6.35
2022-11-05T14:04:04.557Z,7.70
2022-11-05T14:06:35.778Z,6.18
2022-11-05T14:09:20.080Z,6.68
2022-11-05T14:11:55.042Z,6.80
2022-11-05T14:14:34.221Z,6.22
2022-11-05T14:17:08.062Z,5.60
2022-11-05T14:19:49.882Z,7.82
2022-11-05T14:22:32.766Z,6.78
2022-11-05T14:25:19.623Z,5.47
2022-11-05T14:27:49.538Z,7.03
2022-11-05T14:30:46.203Z,4.80
2022-11-05T14:33:26.334Z,3.88
2022-11-05T14:36:22.813Z,7.65
2022-11-05T14:38:53.598Z,11.15
2022-11-05T14:41:22.038Z,8.48
2022-11-05T14:44:05.072Z,5.95
2022-11-05T14:46:47.922Z,5.78
2022-11-05T14:49:46.230Z,8.02
2022-11-05T14:52:17.244Z,6.22
2022-11-05T14:54:53.828Z,4.90
2022-11-05T14:57:43.324Z,4.25
2022-11-05T15:00:29.692Z,5.40
2022-11-05T15:03:03.127Z,9.45
2022-11-05T15:05:39.855Z,5.25
2022-11-05T15:08:29.713Z,5.63
2022-11-05T15:11:07.551Z,8.02
2022-11-05T15:16:16.494Z,8.63
2022-11-05T15:18:46.622Z,7.10
2022-11-05T15:21:17.037Z,7.82
2022-11-05T15:23:47.501Z,7.90
2022-11-05T15:26:45.802Z,11.55
2022-11-05T15:29:22.624Z,5.57
2022-11-05T15:31:51.157Z,8.57
2022-11-05T15:34:26.295Z,5.25
2022-11-05T15:37:20.986Z,7.10
2022-11-05T15:39:50.084Z,8.35
2022-11-05T15:42:27.700Z,5.63
2022-11-05T15:44:57.268Z,6.97
2022-11-05T15:47:24.843Z,7.00
2022-11-05T15:50:03.944Z,8.02
2022-11-05T15:52:49.455Z,12.18
2022-11-05T15:55:20.152Z,9.13
2022-11-05T15:58:03.349Z,12.25
2022-11-05T16:00:36.723Z,9.88
2022-11-05T16:03:15.907Z,7.13
2022-11-05T16:05:46.665Z,3.67
2022-11-05T16:08:23.993Z,6.80
2022-11-05T16:10:54.266Z,6.60
2022-11-05T16:13:32.772Z,3.10
2022-11-05T16:16:13.738Z,1.15
2022-11-05T16:18:42.663Z,1.48
2022-11-05T16:21:12.623Z,4.18
2022-11-05T16:23:48.144Z,4.65
2022-11-05T16:29:37.796Z,8.88
2022-11-05T16:32:31.105Z,6.38
2022-11-05T16:35:05.745Z,6.65
2022-11-05T16:37:41.704Z,5.68
2022-11-05T16:40:15.562Z,6.53
2022-11-05T16:42:44.372Z,7.38
2022-11-05T16:45:14.990Z,7.93
2022-11-05T16:47:43.388Z,5.78
2022-11-05T16:50:18.110Z,6.30
2022-11-05T16:52:47.468Z,8.35
2022-11-05T16:55:16.279Z,6.75
2022-11-05T16:57:46.669Z,9.55
2022-11-05T17:00:19.101Z,9.98
2022-11-05T17:02:47.424Z,6.78
2022-11-05T17:05:19.462Z,7.28
2022-11-05T17:07:48.714Z,12.23
2022-11-05T17:10:16.976Z,8.00
2022-11-05T17:12:46.426Z,12.05
2022-11-05T17:15:22.181Z,6.80
2022-11-05T17:17:53.043Z,13.70
2022-11-05T17:20:39.424Z,11.45
2022-11-05T17:23:24.974Z,8.50
2022-11-05T17:26:01.498Z,5.55
2022-11-05T17:28:29.596Z,7.53
2022-11-05T17:33:41.278Z,9.20
2022-11-05T17:36:14.149Z,8.95
2022-11-05T17:38:42.628Z,10.43
2022-11-05T17:41:20.344Z,13.65
2022-11-05T17:43:48.676Z,15.23
2022-11-05T17:46:17.702Z,11.85
2022-11-05T17:48:47.308Z,8.90
2022-11-05T17:51:19.237Z,12.27
2022-11-05T17:53:49.303Z,10.27
2022-11-05T17:56:29.195Z,14.52
2022-11-05T17:59:03.945Z,48.38
2022-11-05T18:01:35.893Z,57.35
2022-11-05T18:04:09.054Z,48.38
2022-11-05T18:06:38.221Z,43.08
2022-11-05T18:09:07.724Z,63.65
2022-11-05T18:11:36.101Z,38.10
2022-11-05T18:14:04.435Z,29.50
2022-11-05T18:16:32.758Z,25.55
2022-11-05T18:19:00.288Z,27.10
2022-11-05T18:21:28.273Z,19.17
2022-11-05T18:23:56.439Z,23.15
2022-11-05T18:28:51.345Z,38.78
2022-11-05T18:31:20.679Z,35.33
2022-11-05T18:33:49.804Z,36.10
2022-11-05T18:36:25.573Z,91.75
2022-11-05T18:38:53.817Z,133.55
2022-11-05T18:43:49.468Z,110.85
2022-11-05T18:46:43.025Z,120.07
2022-11-05T18:49:06.218Z,108.95
2022-11-05T18:51:33.608Z,138.30
2022-11-05T18:54:01.614Z,169.80
2022-11-05T18:56:29.085Z,157.15
2022-11-05T18:59:21.817Z,127.07
2022-11-05T19:01:46.085Z,168.80
2022-11-05T19:04:14.248Z,171.73
2022-11-05T19:06:42.610Z,306.85
2022-11-05T19:09:12.026Z,787.05
2022-11-05T19:11:40.252Z,640.97
2022-11-05T19:14:08.466Z,644.83
2022-11-05T19:19:06.068Z,738.42
2022-11-05T19:21:34.677Z,442.25
2022-11-05T19:24:03.676Z,374.45
2022-11-05T19:29:02.399Z,145.75
2022-11-05T19:31:31.284Z,55.13
2022-11-05T19:34:01.062Z,514.15
2022-11-05T19:36:29.049Z,333.55
2022-11-05T19:38:58.465Z,475.25
2022-11-05T19:41:26.721Z,282.52
2022-11-05T19:43:55.144Z,1000.08
2022-11-05T19:46:23.764Z,1828.38
2022-11-05T19:48:51.786Z,1308.07
2022-11-05T19:51:21.348Z,1359.10
2022-11-05T19:53:51.391Z,1048.30
2022-11-05T19:56:22.681Z,942.33
2022-11-05T19:58:50.989Z,968.17
2022-11-05T20:03:46.699Z,1180.50
2022-11-05T20:09:07.193Z,1293.82
2022-11-05T20:11:32.434Z,1032.07
2022-11-05T20:14:00.374Z,1477.50
2022-11-05T20:16:32.219Z,1410.25
2022-11-05T20:18:59.808Z,1700.78
2022-11-05T20:21:27.798Z,1203.25
2022-11-05T20:23:59.532Z,1153.57
2022-11-05T20:26:27.476Z,992.72
2022-11-05T20:28:56.066Z,1250.00
2022-11-05T20:31:24.086Z,1178.32
2022-11-05T20:33:52.398Z,749.45
2022-11-05T20:36:22.662Z,759.80
2022-11-05T20:38:55.423Z,1057.93
2022-11-05T20:41:23.506Z,885.65
2022-11-05T20:43:51.667Z,628.33
2022-11-05T20:46:20.904Z,536.45
2022-11-05T20:48:48.787Z,745.70
2022-11-05T20:51:18.833Z,580.03
2022-11-05T20:53:47.153Z,526.40
2022-11-05T20:58:47.509Z,826.97
2022-11-05T21:01:16.651Z,739.78
2022-11-05T21:03:45.720Z,670.55
2022-11-05T21:06:14.184Z,835.08
2022-11-05T21:08:42.264Z,884.47
2022-11-05T21:11:10.839Z,945.75
2022-11-05T21:13:38.942Z,1161.20
2022-11-05T21:16:09.551Z,693.25
2022-11-05T21:18:40.714Z,663.72
2022-11-05T21:21:11.517Z,675.58
2022-11-05T21:23:39.464Z,689.35
2022-11-05T21:26:09.089Z,411.42
2022-11-05T21:28:39.537Z,739.95
2022-11-05T21:31:08.004Z,876.60
2022-11-05T21:33:36.171Z,599.53
2022-11-05T21:36:08.293Z,920.28
2022-11-05T21:38:35.982Z,774.78
2022-11-05T21:41:04.902Z,693.85
2022-11-05T21:43:32.860Z,1043.22
2022-11-05T21:46:01.930Z,1100.85
2022-11-05T21:48:30.576Z,966.03
2022-11-05T21:51:17.630Z,1109.32
2022-11-05T21:54:03.913Z,903.13
2022-11-05T21:56:51.013Z,1268.03
2022-11-05T21:59:39.563Z,1347.57
2022-11-05T22:02:08.656Z,1048.35
2022-11-05T22:04:39.110Z,1154.15
2022-11-05T22:07:08.984Z,1086.93
2022-11-05T22:09:37.079Z,1315.30
2022-11-05T22:12:05.446Z,1190.95
2022-11-05T22:14:34.228Z,1110.55
2022-11-05T22:17:02.391Z,1047.88
2022-11-05T22:19:30.946Z,1260.95
2022-11-05T22:21:59.330Z,1139.75
2022-11-05T22:24:32.121Z,1119.90
2022-11-05T22:27:02.227Z,1077.07
2022-11-05T22:29:30.757Z,883.45
2022-11-05T22:31:58.392Z,1073.50
2022-11-05T22:34:26.691Z,761.47
2022-11-05T22:36:54.585Z,899.92
2022-11-05T22:39:22.508Z,1288.95
2022-11-05T22:44:20.637Z,1171.63
2022-11-05T22:46:48.836Z,641.33
2022-11-05T22:49:17.017Z,784.28
2022-11-05T22:51:46.014Z,963.22
2022-11-05T22:54:14.214Z,677.00
2022-11-05T22:56:43.792Z,597.10
2022-11-05T22:59:16.678Z,998.75
2022-11-05T23:01:45.475Z,1190.75
2022-11-05T23:04:14.326Z,1032.15
2022-11-05T23:07:00.960Z,927.85
2022-11-05T23:09:50.196Z,739.88
2022-11-05T23:12:32.726Z,844.53
2022-11-05T23:15:02.219Z,981.30
2022-11-05T23:17:48.799Z,1047.53
2022-11-05T23:20:38.748Z,857.88
2022-11-05T23:23:51.442Z,615.47
2022-11-05T23:26:38.601Z,916.22
2022-11-05T23:29:06.537Z,727.33
2022-11-05T23:31:53.087Z,1047.60
2022-11-05T23:34:20.986Z,662.17
2022-11-05T23:37:07.392Z,598.45
2022-11-05T23:39:39.703Z,556.53
2022-11-05T23:42:28.539Z,659.83
2022-11-05T23:45:15.069Z,553.38
2022-11-05T23:48:01.806Z,517.10
2022-11-05T23:50:34.384Z,475.00
2022-11-05T23:53:06.361Z,654.67
2022-11-05T23:55:34.171Z,722.65
2022-11-05T23:58:02.258Z,658.55
